Norfolk Naval Air Station, Virginia
Current Conditions -  °F | °C
As of 4:59 PM on Friday 24 Oct 2014 (Local Time) from KNGU Reporting Station
Scattered Clouds Scattered Clouds  
Wind Chill: 69°   Ceiling: Unl
Heat Index: 69°   Visibility: 10mi
Dew Point: 44°   Wind: 12mph
Humidity: 40%   Direction: 300°WNW
Pressure: 29.92"   Gusts: NA
Location:  36.9343°N, 76.284°W
Report Text: KNGU 242059Z 30010KT 10SM FEW150 SCT250 21/07 A2992 RMK AO2 SLP133 T02060067 55006 $
Loading
Personal Weather Stations






























Interactive Weather Map
Tropical Storm Tracking
New forecast layout! Learn more

10-Day Weather Forecast

Advertisements
Track Severe Weather on mobile